sensor_id;sensor_type;location;lat;lon;timestamp;P1;durP1;ratioP1;P2;durP2;ratioP2
8656;SDS011;4366;50.764;7.184;2023-05-07T00:01:26;1.70;;;1.60;;
8656;SDS011;4366;50.764;7.184;2023-05-07T00:06:28;1.80;;;1.70;;
8656;SDS011;4366;50.764;7.184;2023-05-07T00:11:30;1.60;;;1.50;;
8656;SDS011;4366;50.764;7.184;2023-05-07T00:16:32;2.40;;;1.40;;
8656;SDS011;4366;50.764;7.184;2023-05-07T00:21:34;1.70;;;1.60;;
8656;SDS011;4366;50.764;7.184;2023-05-07T00:26:35;1.83;;;1.73;;
8656;SDS011;4366;50.764;7.184;2023-05-07T00:31:37;2.03;;;1.93;;
8656;SDS011;4366;50.764;7.184;2023-05-07T00:36:38;1.73;;;1.63;;
8656;SDS011;4366;50.764;7.184;2023-05-07T00:41:40;1.80;;;1.70;;
8656;SDS011;4366;50.764;7.184;2023-05-07T00:46:42;1.40;;;1.40;;
8656;SDS011;4366;50.764;7.184;2023-05-07T00:51:44;1.93;;;1.83;;
8656;SDS011;4366;50.764;7.184;2023-05-07T00:56:46;1.37;;;1.37;;
8656;SDS011;4366;50.764;7.184;2023-05-07T01:01:48;1.80;;;1.70;;
8656;SDS011;4366;50.764;7.184;2023-05-07T01:06:50;1.97;;;1.87;;
8656;SDS011;4366;50.764;7.184;2023-05-07T01:11:52;1.80;;;1.70;;
8656;SDS011;4366;50.764;7.184;2023-05-07T01:16:54;1.50;;;1.40;;
8656;SDS011;4366;50.764;7.184;2023-05-07T01:22:02;1.70;;;1.60;;
8656;SDS011;4366;50.764;7.184;2023-05-07T01:27:12;2.43;;;1.67;;
8656;SDS011;4366;50.764;7.184;2023-05-07T01:32:14;1.63;;;1.53;;
8656;SDS011;4366;50.764;7.184;2023-05-07T01:37:19;2.17;;;1.97;;
8656;SDS011;4366;50.764;7.184;2023-05-07T01:42:22;1.47;;;1.43;;
8656;SDS011;4366;50.764;7.184;2023-05-07T01:47:24;1.80;;;1.70;;
8656;SDS011;4366;50.764;7.184;2023-05-07T01:52:27;1.63;;;1.53;;
8656;SDS011;4366;50.764;7.184;2023-05-07T01:57:29;1.63;;;1.53;;
8656;SDS011;4366;50.764;7.184;2023-05-07T02:02:31;1.90;;;1.80;;
8656;SDS011;4366;50.764;7.184;2023-05-07T02:07:33;1.90;;;1.70;;
8656;SDS011;4366;50.764;7.184;2023-05-07T02:12:34;1.70;;;1.60;;
8656;SDS011;4366;50.764;7.184;2023-05-07T02:17:39;1.80;;;1.70;;
8656;SDS011;4366;50.764;7.184;2023-05-07T02:23:06;2.63;;;1.60;;
8656;SDS011;4366;50.764;7.184;2023-05-07T02:28:09;1.80;;;1.70;;
8656;SDS011;4366;50.764;7.184;2023-05-07T02:33:20;1.70;;;1.60;;
8656;SDS011;4366;50.764;7.184;2023-05-07T02:38:51;2.13;;;1.90;;
8656;SDS011;4366;50.764;7.184;2023-05-07T02:43:57;2.60;;;1.80;;
8656;SDS011;4366;50.764;7.184;2023-05-07T02:48:58;2.07;;;1.97;;
8656;SDS011;4366;50.764;7.184;2023-05-07T02:54:00;2.00;;;1.90;;
8656;SDS011;4366;50.764;7.184;2023-05-07T02:59:03;1.67;;;1.57;;
8656;SDS011;4366;50.764;7.184;2023-05-07T03:04:12;1.40;;;1.30;;
8656;SDS011;4366;50.764;7.184;2023-05-07T03:09:13;2.80;;;2.37;;
8656;SDS011;4366;50.764;7.184;2023-05-07T03:14:15;1.63;;;1.53;;
8656;SDS011;4366;50.764;7.184;2023-05-07T03:19:17;1.77;;;1.67;;
8656;SDS011;4366;50.764;7.184;2023-05-07T03:24:19;1.77;;;1.50;;
8656;SDS011;4366;50.764;7.184;2023-05-07T03:29:21;2.40;;;1.73;;
8656;SDS011;4366;50.764;7.184;2023-05-07T03:34:22;1.90;;;1.80;;
8656;SDS011;4366;50.764;7.184;2023-05-07T03:39:24;1.70;;;1.60;;
8656;SDS011;4366;50.764;7.184;2023-05-07T03:44:26;1.80;;;1.60;;
8656;SDS011;4366;50.764;7.184;2023-05-07T03:49:28;1.67;;;1.57;;
8656;SDS011;4366;50.764;7.184;2023-05-07T03:54:31;2.00;;;1.57;;
8656;SDS011;4366;50.764;7.184;2023-05-07T03:59:33;1.70;;;1.60;;
8656;SDS011;4366;50.764;7.184;2023-05-07T04:04:35;1.30;;;1.30;;
8656;SDS011;4366;50.764;7.184;2023-05-07T04:09:36;1.70;;;1.60;;
8656;SDS011;4366;50.764;7.184;2023-05-07T04:14:38;1.93;;;1.83;;
8656;SDS011;4366;50.764;7.184;2023-05-07T04:19:40;1.87;;;1.77;;
8656;SDS011;4366;50.764;7.184;2023-05-07T04:24:46;2.10;;;1.90;;
8656;SDS011;4366;50.764;7.184;2023-05-07T04:29:48;1.90;;;1.80;;
8656;SDS011;4366;50.764;7.184;2023-05-07T04:34:52;1.43;;;1.43;;
8656;SDS011;4366;50.764;7.184;2023-05-07T04:39:53;1.70;;;1.60;;
8656;SDS011;4366;50.764;7.184;2023-05-07T04:44:57;1.83;;;1.73;;
8656;SDS011;4366;50.764;7.184;2023-05-07T04:49:58;1.87;;;1.77;;
8656;SDS011;4366;50.764;7.184;2023-05-07T04:55:01;1.57;;;1.47;;
8656;SDS011;4366;50.764;7.184;2023-05-07T05:00:09;1.70;;;1.60;;
8656;SDS011;4366;50.764;7.184;2023-05-07T05:05:13;1.23;;;1.23;;
8656;SDS011;4366;50.764;7.184;2023-05-07T05:10:15;1.63;;;1.53;;
8656;SDS011;4366;50.764;7.184;2023-05-07T05:15:18;1.53;;;1.47;;
8656;SDS011;4366;50.764;7.184;2023-05-07T05:20:19;1.63;;;1.43;;
8656;SDS011;4366;50.764;7.184;2023-05-07T05:25:22;1.53;;;1.40;;
8656;SDS011;4366;50.764;7.184;2023-05-07T05:30:25;1.60;;;1.37;;
8656;SDS011;4366;50.764;7.184;2023-05-07T05:35:27;1.40;;;1.40;;
8656;SDS011;4366;50.764;7.184;2023-05-07T05:40:30;1.30;;;1.30;;
8656;SDS011;4366;50.764;7.184;2023-05-07T05:45:31;1.37;;;1.37;;
8656;SDS011;4366;50.764;7.184;2023-05-07T05:50:33;1.40;;;1.30;;
8656;SDS011;4366;50.764;7.184;2023-05-07T05:55:38;1.97;;;1.60;;
8656;SDS011;4366;50.764;7.184;2023-05-07T06:00:40;1.17;;;1.17;;
8656;SDS011;4366;50.764;7.184;2023-05-07T06:05:42;1.43;;;1.40;;
8656;SDS011;4366;50.764;7.184;2023-05-07T06:10:44;1.30;;;1.30;;
8656;SDS011;4366;50.764;7.184;2023-05-07T06:15:46;1.90;;;1.50;;
8656;SDS011;4366;50.764;7.184;2023-05-07T06:20:47;1.20;;;1.20;;
8656;SDS011;4366;50.764;7.184;2023-05-07T06:25:57;1.23;;;1.20;;
8656;SDS011;4366;50.764;7.184;2023-05-07T06:31:17;1.60;;;1.50;;
8656;SDS011;4366;50.764;7.184;2023-05-07T06:36:31;1.33;;;1.23;;
8656;SDS011;4366;50.764;7.184;2023-05-07T06:41:36;1.13;;;1.13;;
8656;SDS011;4366;50.764;7.184;2023-05-07T06:46:42;1.10;;;1.10;;
8656;SDS011;4366;50.764;7.184;2023-05-07T06:51:45;0.80;;;0.80;;
8656;SDS011;4366;50.764;7.184;2023-05-07T06:56:47;0.90;;;0.90;;
8656;SDS011;4366;50.764;7.184;2023-05-07T07:01:49;1.07;;;1.07;;
8656;SDS011;4366;50.764;7.184;2023-05-07T07:06:51;0.80;;;0.80;;
8656;SDS011;4366;50.764;7.184;2023-05-07T07:11:54;1.73;;;1.57;;
8656;SDS011;4366;50.764;7.184;2023-05-07T07:16:57;1.33;;;1.27;;
8656;SDS011;4366;50.764;7.184;2023-05-07T07:21:59;1.10;;;1.00;;
8656;SDS011;4366;50.764;7.184;2023-05-07T07:27:01;0.90;;;0.90;;
8656;SDS011;4366;50.764;7.184;2023-05-07T07:32:04;1.87;;;1.40;;
8656;SDS011;4366;50.764;7.184;2023-05-07T07:37:06;1.00;;;1.00;;
8656;SDS011;4366;50.764;7.184;2023-05-07T07:42:10;1.30;;;1.30;;
8656;SDS011;4366;50.764;7.184;2023-05-07T07:47:12;1.03;;;1.03;;
8656;SDS011;4366;50.764;7.184;2023-05-07T07:52:15;1.20;;;1.20;;
8656;SDS011;4366;50.764;7.184;2023-05-07T07:57:18;1.10;;;1.10;;
8656;SDS011;4366;50.764;7.184;2023-05-07T08:02:21;0.93;;;0.93;;
8656;SDS011;4366;50.764;7.184;2023-05-07T08:07:24;1.03;;;1.03;;
8656;SDS011;4366;50.764;7.184;2023-05-07T08:12:26;1.03;;;1.03;;
8656;SDS011;4366;50.764;7.184;2023-05-07T08:17:29;1.03;;;1.03;;
8656;SDS011;4366;50.764;7.184;2023-05-07T08:22:31;1.07;;;1.07;;
8656;SDS011;4366;50.764;7.184;2023-05-07T08:27:33;1.93;;;1.17;;
8656;SDS011;4366;50.764;7.184;2023-05-07T08:32:35;0.90;;;0.90;;
8656;SDS011;4366;50.764;7.184;2023-05-07T08:37:52;1.43;;;1.13;;
8656;SDS011;4366;50.764;7.184;2023-05-07T08:42:54;1.03;;;1.03;;
8656;SDS011;4366;50.764;7.184;2023-05-07T08:47:58;0.93;;;0.93;;
8656;SDS011;4366;50.764;7.184;2023-05-07T08:53:05;1.23;;;1.20;;
8656;SDS011;4366;50.764;7.184;2023-05-07T08:58:07;1.33;;;0.95;;
8656;SDS011;4366;50.764;7.184;2023-05-07T09:03:12;0.98;;;0.98;;
8656;SDS011;4366;50.764;7.184;2023-05-07T09:08:24;0.90;;;0.90;;
8656;SDS011;4366;50.764;7.184;2023-05-07T09:13:28;1.05;;;1.00;;
8656;SDS011;4366;50.764;7.184;2023-05-07T09:18:32;1.27;;;1.17;;
8656;SDS011;4366;50.764;7.184;2023-05-07T09:23:33;1.00;;;1.00;;
8656;SDS011;4366;50.764;7.184;2023-05-07T09:28:37;1.20;;;1.20;;
8656;SDS011;4366;50.764;7.184;2023-05-07T09:33:40;1.00;;;1.00;;
8656;SDS011;4366;50.764;7.184;2023-05-07T09:38:44;0.90;;;0.90;;
8656;SDS011;4366;50.764;7.184;2023-05-07T09:43:46;0.93;;;0.93;;
8656;SDS011;4366;50.764;7.184;2023-05-07T09:48:59;1.00;;;1.00;;
8656;SDS011;4366;50.764;7.184;2023-05-07T09:54:06;1.10;;;1.10;;
8656;SDS011;4366;50.764;7.184;2023-05-07T09:59:15;0.90;;;0.90;;
8656;SDS011;4366;50.764;7.184;2023-05-07T10:04:19;1.58;;;1.48;;
8656;SDS011;4366;50.764;7.184;2023-05-07T10:09:21;1.13;;;1.13;;
8656;SDS011;4366;50.764;7.184;2023-05-07T10:14:24;1.00;;;1.00;;
8656;SDS011;4366;50.764;7.184;2023-05-07T10:19:26;0.93;;;0.93;;
8656;SDS011;4366;50.764;7.184;2023-05-07T10:24:33;0.90;;;0.90;;
8656;SDS011;4366;50.764;7.184;2023-05-07T10:34:47;0.90;;;0.90;;
8656;SDS011;4366;50.764;7.184;2023-05-07T10:39:51;1.02;;;1.02;;
8656;SDS011;4366;50.764;7.184;2023-05-07T10:44:53;0.95;;;0.95;;
8656;SDS011;4366;50.764;7.184;2023-05-07T11:05:39;0.85;;;0.85;;
8656;SDS011;4366;50.764;7.184;2023-05-07T11:10:55;0.70;;;0.70;;
8656;SDS011;4366;50.764;7.184;2023-05-07T11:16:20;0.85;;;0.85;;
8656;SDS011;4366;50.764;7.184;2023-05-07T11:21:37;1.17;;;0.80;;
8656;SDS011;4366;50.764;7.184;2023-05-07T11:26:48;0.80;;;0.80;;
8656;SDS011;4366;50.764;7.184;2023-05-07T11:31:53;0.70;;;0.70;;
8656;SDS011;4366;50.764;7.184;2023-05-07T11:36:58;0.75;;;0.75;;
8656;SDS011;4366;50.764;7.184;2023-05-07T11:42:34;0.68;;;0.68;;
8656;SDS011;4366;50.764;7.184;2023-05-07T11:47:38;0.95;;;0.95;;
8656;SDS011;4366;50.764;7.184;2023-05-07T11:52:50;0.90;;;0.90;;
8656;SDS011;4366;50.764;7.184;2023-05-07T11:57:53;0.77;;;0.77;;
8656;SDS011;4366;50.764;7.184;2023-05-07T12:02:55;0.80;;;0.80;;
8656;SDS011;4366;50.764;7.184;2023-05-07T12:07:57;1.13;;;1.02;;
8656;SDS011;4366;50.764;7.184;2023-05-07T12:12:59;0.98;;;0.98;;
8656;SDS011;4366;50.764;7.184;2023-05-07T12:18:01;0.60;;;0.60;;
8656;SDS011;4366;50.764;7.184;2023-05-07T12:23:02;1.23;;;1.00;;
8656;SDS011;4366;50.764;7.184;2023-05-07T12:28:04;0.70;;;0.70;;
8656;SDS011;4366;50.764;7.184;2023-05-07T12:33:07;0.70;;;0.70;;
8656;SDS011;4366;50.764;7.184;2023-05-07T12:38:10;0.70;;;0.70;;
8656;SDS011;4366;50.764;7.184;2023-05-07T12:43:17;1.55;;;0.90;;
8656;SDS011;4366;50.764;7.184;2023-05-07T12:48:23;0.55;;;0.55;;
8656;SDS011;4366;50.764;7.184;2023-05-07T12:53:25;1.23;;;1.13;;
8656;SDS011;4366;50.764;7.184;2023-05-07T13:03:31;0.57;;;0.57;;
8656;SDS011;4366;50.764;7.184;2023-05-07T13:08:35;0.80;;;0.80;;
8656;SDS011;4366;50.764;7.184;2023-05-07T13:13:39;0.80;;;0.80;;
8656;SDS011;4366;50.764;7.184;2023-05-07T13:18:42;0.90;;;0.90;;
8656;SDS011;4366;50.764;7.184;2023-05-07T13:23:45;0.85;;;0.85;;
8656;SDS011;4366;50.764;7.184;2023-05-07T13:28:47;0.73;;;0.73;;
8656;SDS011;4366;50.764;7.184;2023-05-07T13:33:49;0.95;;;0.88;;
8656;SDS011;4366;50.764;7.184;2023-05-07T13:38:51;0.70;;;0.70;;
8656;SDS011;4366;50.764;7.184;2023-05-07T13:43:53;0.98;;;0.98;;
8656;SDS011;4366;50.764;7.184;2023-05-07T13:48:55;0.80;;;0.75;;
8656;SDS011;4366;50.764;7.184;2023-05-07T13:53:57;1.00;;;1.00;;
8656;SDS011;4366;50.764;7.184;2023-05-07T13:58:59;0.93;;;0.93;;
8656;SDS011;4366;50.764;7.184;2023-05-07T14:04:01;1.02;;;0.90;;
8656;SDS011;4366;50.764;7.184;2023-05-07T14:09:03;1.00;;;1.00;;
8656;SDS011;4366;50.764;7.184;2023-05-07T14:14:06;0.80;;;0.80;;
8656;SDS011;4366;50.764;7.184;2023-05-07T14:19:08;1.00;;;1.00;;
8656;SDS011;4366;50.764;7.184;2023-05-07T14:24:09;1.10;;;1.00;;
8656;SDS011;4366;50.764;7.184;2023-05-07T14:29:11;1.00;;;1.00;;
8656;SDS011;4366;50.764;7.184;2023-05-07T14:34:13;1.10;;;1.00;;
8656;SDS011;4366;50.764;7.184;2023-05-07T14:39:15;1.23;;;1.20;;
8656;SDS011;4366;50.764;7.184;2023-05-07T14:44:16;1.25;;;1.15;;
8656;SDS011;4366;50.764;7.184;2023-05-07T14:49:18;1.50;;;1.17;;
8656;SDS011;4366;50.764;7.184;2023-05-07T14:54:20;1.08;;;1.08;;
8656;SDS011;4366;50.764;7.184;2023-05-07T14:59:21;1.40;;;1.30;;
8656;SDS011;4366;50.764;7.184;2023-05-07T15:04:23;1.40;;;1.40;;
8656;SDS011;4366;50.764;7.184;2023-05-07T15:09:25;1.10;;;1.10;;
8656;SDS011;4366;50.764;7.184;2023-05-07T15:14:27;1.40;;;1.40;;
8656;SDS011;4366;50.764;7.184;2023-05-07T15:19:29;1.45;;;1.35;;
8656;SDS011;4366;50.764;7.184;2023-05-07T15:24:31;1.20;;;1.20;;
8656;SDS011;4366;50.764;7.184;2023-05-07T15:29:33;2.00;;;1.35;;
8656;SDS011;4366;50.764;7.184;2023-05-07T15:34:36;0.98;;;0.98;;
8656;SDS011;4366;50.764;7.184;2023-05-07T15:39:38;1.50;;;1.40;;
8656;SDS011;4366;50.764;7.184;2023-05-07T15:44:40;1.17;;;1.17;;
8656;SDS011;4366;50.764;7.184;2023-05-07T15:49:42;1.43;;;1.40;;
8656;SDS011;4366;50.764;7.184;2023-05-07T15:54:44;1.40;;;1.10;;
8656;SDS011;4366;50.764;7.184;2023-05-07T15:59:45;1.50;;;1.40;;
8656;SDS011;4366;50.764;7.184;2023-05-07T16:04:48;1.17;;;1.17;;
8656;SDS011;4366;50.764;7.184;2023-05-07T16:09:49;2.63;;;1.80;;
8656;SDS011;4366;50.764;7.184;2023-05-07T16:14:51;1.90;;;1.80;;
8656;SDS011;4366;50.764;7.184;2023-05-07T16:19:53;1.87;;;1.77;;
8656;SDS011;4366;50.764;7.184;2023-05-07T16:24:54;2.00;;;1.90;;
8656;SDS011;4366;50.764;7.184;2023-05-07T16:29:56;2.00;;;1.90;;
8656;SDS011;4366;50.764;7.184;2023-05-07T16:34:58;2.30;;;2.07;;
8656;SDS011;4366;50.764;7.184;2023-05-07T16:40:00;2.00;;;1.90;;
8656;SDS011;4366;50.764;7.184;2023-05-07T16:45:02;1.97;;;1.87;;
8656;SDS011;4366;50.764;7.184;2023-05-07T16:50:07;2.10;;;2.00;;
8656;SDS011;4366;50.764;7.184;2023-05-07T16:55:09;2.53;;;2.33;;
8656;SDS011;4366;50.764;7.184;2023-05-07T17:00:12;2.20;;;2.00;;
8656;SDS011;4366;50.764;7.184;2023-05-07T17:05:14;3.57;;;1.73;;
8656;SDS011;4366;50.764;7.184;2023-05-07T17:10:16;2.47;;;2.27;;
8656;SDS011;4366;50.764;7.184;2023-05-07T17:15:18;2.47;;;2.27;;
8656;SDS011;4366;50.764;7.184;2023-05-07T17:20:20;1.93;;;1.80;;
8656;SDS011;4366;50.764;7.184;2023-05-07T17:25:22;2.57;;;2.00;;
8656;SDS011;4366;50.764;7.184;2023-05-07T17:30:24;2.10;;;2.00;;
8656;SDS011;4366;50.764;7.184;2023-05-07T17:35:25;2.10;;;2.00;;
8656;SDS011;4366;50.764;7.184;2023-05-07T17:40:27;2.10;;;2.00;;
8656;SDS011;4366;50.764;7.184;2023-05-07T17:45:31;2.33;;;2.13;;
8656;SDS011;4366;50.764;7.184;2023-05-07T17:50:32;2.43;;;2.17;;
8656;SDS011;4366;50.764;7.184;2023-05-07T17:55:34;2.20;;;2.00;;
8656;SDS011;4366;50.764;7.184;2023-05-07T18:00:40;2.30;;;2.10;;
8656;SDS011;4366;50.764;7.184;2023-05-07T18:05:42;3.10;;;2.57;;
8656;SDS011;4366;50.764;7.184;2023-05-07T18:10:44;2.93;;;2.67;;
8656;SDS011;4366;50.764;7.184;2023-05-07T18:15:46;4.17;;;2.37;;
8656;SDS011;4366;50.764;7.184;2023-05-07T18:20:48;2.70;;;2.50;;
8656;SDS011;4366;50.764;7.184;2023-05-07T18:25:51;2.90;;;2.70;;
8656;SDS011;4366;50.764;7.184;2023-05-07T18:30:53;3.43;;;2.70;;
8656;SDS011;4366;50.764;7.184;2023-05-07T18:35:54;3.23;;;2.27;;
8656;SDS011;4366;50.764;7.184;2023-05-07T18:41:00;2.47;;;2.37;;
8656;SDS011;4366;50.764;7.184;2023-05-07T18:46:03;2.60;;;2.40;;
8656;SDS011;4366;50.764;7.184;2023-05-07T18:51:06;2.23;;;2.13;;
8656;SDS011;4366;50.764;7.184;2023-05-07T18:56:12;2.37;;;2.17;;
8656;SDS011;4366;50.764;7.184;2023-05-07T19:01:14;2.37;;;2.17;;
8656;SDS011;4366;50.764;7.184;2023-05-07T19:06:15;2.43;;;1.93;;
8656;SDS011;4366;50.764;7.184;2023-05-07T19:11:17;1.87;;;1.77;;
8656;SDS011;4366;50.764;7.184;2023-05-07T19:16:19;1.93;;;1.83;;
8656;SDS011;4366;50.764;7.184;2023-05-07T19:21:20;2.00;;;1.90;;
8656;SDS011;4366;50.764;7.184;2023-05-07T19:26:22;1.97;;;1.87;;
8656;SDS011;4366;50.764;7.184;2023-05-07T19:31:24;1.53;;;1.43;;
8656;SDS011;4366;50.764;7.184;2023-05-07T19:36:27;2.03;;;1.67;;
8656;SDS011;4366;50.764;7.184;2023-05-07T19:41:30;2.17;;;2.00;;
8656;SDS011;4366;50.764;7.184;2023-05-07T19:46:31;2.07;;;1.97;;
8656;SDS011;4366;50.764;7.184;2023-05-07T19:51:33;1.90;;;1.80;;
8656;SDS011;4366;50.764;7.184;2023-05-07T19:56:34;1.90;;;1.80;;
8656;SDS011;4366;50.764;7.184;2023-05-07T20:01:36;1.80;;;1.70;;
8656;SDS011;4366;50.764;7.184;2023-05-07T20:06:39;2.33;;;2.10;;
8656;SDS011;4366;50.764;7.184;2023-05-07T20:11:41;3.57;;;2.50;;
8656;SDS011;4366;50.764;7.184;2023-05-07T20:16:43;1.97;;;1.83;;
8656;SDS011;4366;50.764;7.184;2023-05-07T20:21:46;2.60;;;2.40;;
8656;SDS011;4366;50.764;7.184;2023-05-07T20:26:47;2.40;;;2.20;;
8656;SDS011;4366;50.764;7.184;2023-05-07T20:31:49;2.37;;;2.20;;
8656;SDS011;4366;50.764;7.184;2023-05-07T20:36:51;4.50;;;2.70;;
8656;SDS011;4366;50.764;7.184;2023-05-07T20:41:54;3.93;;;2.50;;
8656;SDS011;4366;50.764;7.184;2023-05-07T20:46:55;2.47;;;2.27;;
8656;SDS011;4366;50.764;7.184;2023-05-07T20:51:57;2.03;;;1.93;;
8656;SDS011;4366;50.764;7.184;2023-05-07T20:56:59;2.20;;;2.10;;
8656;SDS011;4366;50.764;7.184;2023-05-07T21:02:01;2.53;;;2.33;;
8656;SDS011;4366;50.764;7.184;2023-05-07T21:07:03;1.90;;;1.77;;
8656;SDS011;4366;50.764;7.184;2023-05-07T21:12:04;1.93;;;1.73;;
8656;SDS011;4366;50.764;7.184;2023-05-07T21:17:06;1.80;;;1.70;;
8656;SDS011;4366;50.764;7.184;2023-05-07T21:22:08;2.00;;;1.90;;
8656;SDS011;4366;50.764;7.184;2023-05-07T21:27:10;2.10;;;1.90;;
8656;SDS011;4366;50.764;7.184;2023-05-07T21:32:12;2.00;;;1.90;;
8656;SDS011;4366;50.764;7.184;2023-05-07T21:37:13;2.10;;;2.00;;
8656;SDS011;4366;50.764;7.184;2023-05-07T21:42:15;2.30;;;2.20;;
8656;SDS011;4366;50.764;7.184;2023-05-07T21:47:17;2.27;;;2.13;;
8656;SDS011;4366;50.764;7.184;2023-05-07T21:52:19;2.43;;;2.20;;
8656;SDS011;4366;50.764;7.184;2023-05-07T21:57:26;2.50;;;2.30;;
8656;SDS011;4366;50.764;7.184;2023-05-07T22:02:27;2.83;;;2.63;;
8656;SDS011;4366;50.764;7.184;2023-05-07T22:07:29;2.60;;;2.40;;
8656;SDS011;4366;50.764;7.184;2023-05-07T22:12:32;3.03;;;2.73;;
8656;SDS011;4366;50.764;7.184;2023-05-07T22:17:34;3.00;;;2.80;;
8656;SDS011;4366;50.764;7.184;2023-05-07T22:22:45;2.70;;;2.50;;
8656;SDS011;4366;50.764;7.184;2023-05-07T22:27:53;2.40;;;2.30;;
8656;SDS011;4366;50.764;7.184;2023-05-07T22:32:54;2.63;;;2.43;;
8656;SDS011;4366;50.764;7.184;2023-05-07T22:37:56;3.10;;;2.80;;
8656;SDS011;4366;50.764;7.184;2023-05-07T22:42:59;3.13;;;2.50;;
8656;SDS011;4366;50.764;7.184;2023-05-07T22:48:01;3.20;;;2.73;;
8656;SDS011;4366;50.764;7.184;2023-05-07T22:53:04;4.03;;;2.50;;
8656;SDS011;4366;50.764;7.184;2023-05-07T22:58:06;3.10;;;2.90;;
8656;SDS011;4366;50.764;7.184;2023-05-07T23:03:08;2.80;;;2.60;;
8656;SDS011;4366;50.764;7.184;2023-05-07T23:08:12;3.33;;;3.03;;
8656;SDS011;4366;50.764;7.184;2023-05-07T23:13:13;2.80;;;2.57;;
8656;SDS011;4366;50.764;7.184;2023-05-07T23:18:18;5.17;;;2.87;;
8656;SDS011;4366;50.764;7.184;2023-05-07T23:23:19;4.77;;;2.70;;
8656;SDS011;4366;50.764;7.184;2023-05-07T23:28:21;2.50;;;2.30;;
8656;SDS011;4366;50.764;7.184;2023-05-07T23:33:23;3.53;;;2.77;;
8656;SDS011;4366;50.764;7.184;2023-05-07T23:38:24;4.10;;;3.10;;
8656;SDS011;4366;50.764;7.184;2023-05-07T23:43:26;3.23;;;2.93;;
8656;SDS011;4366;50.764;7.184;2023-05-07T23:48:28;3.00;;;2.70;;
8656;SDS011;4366;50.764;7.184;2023-05-07T23:53:29;2.57;;;2.37;;
8656;SDS011;4366;50.764;7.184;2023-05-07T23:58:31;2.60;;;2.20;;
